Time;durP1;ratioP1;P1;durP2;ratioP2;P2;SDS_P1;SDS_P2;PMS_P1;PMS_P2;Temp;Humidity;BMP_temperature;BMP_pressure;BME280_temperature;BME280_humidity;BME280_pressure;Samples;Min_cycle;Max_cycle;Signal;HPM_P1;HPM_P2
2021/05/28 00:00:33;;;;;;;0.30;0.20;;;;;;;9.67;100.00;100824.44;4972510;28;20485;-52
2021/05/28 00:03:00;;;;;;;0.30;0.20;;;;;;;9.93;100.00;100829.31;5002147;28;20912;-52
2021/05/28 00:05:27;;;;;;;0.30;0.20;;;;;;;9.81;100.00;100825.09;4966717;28;20493;-52
2021/05/28 00:07:55;;;;;;;0.30;0.20;;;;;;;9.84;100.00;100826.81;4963712;28;20565;-52
2021/05/28 00:10:21;;;;;;;0.30;0.20;;;;;;;9.71;100.00;100824.34;4976527;28;20457;-52
2021/05/28 00:12:48;;;;;;;0.30;0.20;;;;;;;9.73;100.00;100821.69;4963219;28;20494;-52
2021/05/28 00:15:15;;;;;;;0.40;0.30;;;;;;;9.68;100.00;100821.75;4976176;28;20501;-52
2021/05/28 00:17:42;;;;;;;0.30;0.20;;;;;;;9.56;100.00;100824.59;4975995;28;20528;-52
2021/05/28 00:20:12;;;;;;;0.30;0.20;;;;;;;9.73;100.00;100811.06;4967328;28;20482;-52
2021/05/28 00:22:40;;;;;;;0.30;0.20;;;;;;;9.69;100.00;100818.19;4972917;28;20459;-52
2021/05/28 00:25:09;;;;;;;0.30;0.20;;;;;;;9.55;100.00;100819.34;4975983;28;20490;-52
2021/05/28 00:27:36;;;;;;;0.30;0.20;;;;;;;9.53;100.00;100822.00;4974758;28;20529;-52
2021/05/28 00:30:04;;;;;;;0.30;0.20;;;;;;;9.42;100.00;100814.22;4966969;28;20518;-52
2021/05/28 00:32:32;;;;;;;0.30;0.20;;;;;;;9.56;100.00;100815.78;4973783;28;20500;-52
2021/05/28 00:34:58;;;;;;;0.30;0.20;;;;;;;9.55;100.00;100814.91;4976309;28;20501;-52
2021/05/28 00:37:25;;;;;;;0.30;0.20;;;;;;;9.57;100.00;100813.09;4975953;28;20894;-52
2021/05/28 00:39:52;;;;;;;0.50;0.50;;;;;;;9.56;100.00;100821.97;4976172;28;20517;-52
2021/05/28 00:42:19;;;;;;;0.30;0.20;;;;;;;9.78;100.00;100823.38;4975682;28;21006;-52
2021/05/28 00:44:45;;;;;;;0.30;0.20;;;;;;;9.98;100.00;100827.44;4976056;28;20481;-52
2021/05/28 00:47:12;;;;;;;0.30;0.20;;;;;;;10.11;100.00;100831.66;4975727;28;20483;-52
2021/05/28 00:49:39;;;;;;;0.40;0.30;;;;;;;10.35;100.00;100825.91;4964631;28;20505;-52
2021/05/28 00:52:06;;;;;;;0.30;0.20;;;;;;;10.26;100.00;100836.72;4974143;28;20450;-52
2021/05/28 00:54:32;;;;;;;0.83;0.83;;;;;;;10.42;100.00;100836.44;4975715;28;20944;-53
2021/05/28 00:56:59;;;;;;;0.30;0.20;;;;;;;10.36;100.00;100832.09;4975480;28;20552;-52
2021/05/28 00:59:26;;;;;;;0.30;0.20;;;;;;;10.19;100.00;100827.09;4975575;28;20947;-52
2021/05/28 01:01:54;;;;;;;0.30;0.20;;;;;;;10.27;100.00;100829.63;4975773;28;20473;-52
2021/05/28 01:04:21;;;;;;;0.30;0.20;;;;;;;10.37;100.00;100824.09;4975311;28;20863;-52
2021/05/28 01:06:48;;;;;;;0.30;0.20;;;;;;;10.70;100.00;100831.47;4975127;28;20496;-52
2021/05/28 01:09:15;;;;;;;0.93;0.93;;;;;;;10.43;100.00;100830.22;4975430;28;20493;-52
2021/05/28 01:11:42;;;;;;;0.30;0.20;;;;;;;10.32;100.00;100836.63;4969122;28;20455;-52
2021/05/28 01:14:08;;;;;;;0.30;0.20;;;;;;;10.34;100.00;100840.13;4969090;28;20454;-52
2021/05/28 01:16:35;;;;;;;0.30;0.20;;;;;;;10.21;100.00;100837.69;4955781;28;20956;-52
2021/05/28 01:19:03;;;;;;;0.30;0.20;;;;;;;9.90;100.00;100832.03;4968346;28;20450;-52
2021/05/28 01:21:30;;;;;;;0.30;0.20;;;;;;;10.17;100.00;100838.66;4962220;28;20509;-52
2021/05/28 01:23:57;;;;;;;0.30;0.20;;;;;;;10.00;100.00;100828.28;4974870;28;20472;-52
2021/05/28 01:26:24;;;;;;;0.30;0.20;;;;;;;9.99;100.00;100830.06;4975323;28;20490;-52
2021/05/28 01:28:50;;;;;;;0.30;0.20;;;;;;;9.88;100.00;100825.88;4975101;28;20481;-52
2021/05/28 01:31:17;;;;;;;0.30;0.20;;;;;;;9.79;100.00;100821.59;4975183;28;20861;-52
2021/05/28 01:33:45;;;;;;;0.33;0.27;;;;;;;9.74;100.00;100823.47;4974813;28;20454;-52
2021/05/28 01:36:12;;;;;;;0.30;0.20;;;;;;;9.39;100.00;100821.34;4974977;28;20482;-51
2021/05/28 01:38:39;;;;;;;0.30;0.20;;;;;;;9.51;100.00;100831.78;4974478;28;20976;-52
2021/05/28 01:41:06;;;;;;;0.30;0.20;;;;;;;9.27;100.00;100827.72;4975088;28;20451;-52
2021/05/28 01:43:34;;;;;;;0.60;0.60;;;;;;;9.28;100.00;100826.81;4974634;28;20454;-52
2021/05/28 01:46:01;;;;;;;0.30;0.20;;;;;;;8.99;100.00;100824.56;4974578;28;20541;-53
2021/05/28 01:48:28;;;;;;;0.30;0.20;;;;;;;8.85;100.00;100823.88;4972587;28;20489;-52
2021/05/28 01:50:54;;;;;;;0.30;0.20;;;;;;;8.94;100.00;100823.78;4962453;28;20478;-52
2021/05/28 01:53:25;;;;;;;0.70;0.70;;;;;;;9.29;100.00;100831.22;4974403;28;20511;-52
2021/05/28 01:55:54;;;;;;;0.30;0.20;;;;;;;9.10;100.00;100841.22;4974688;28;20510;-52
2021/05/28 01:58:22;;;;;;;0.30;0.20;;;;;;;9.01;100.00;100841.31;4974500;28;20478;-52
2021/05/28 02:00:52;;;;;;;0.30;0.20;;;;;;;8.75;100.00;100841.66;4974741;28;20550;-52
2021/05/28 02:03:19;;;;;;;0.40;0.40;;;;;;;9.01;100.00;100832.50;4974430;28;20474;-52
2021/05/28 02:05:46;;;;;;;0.30;0.20;;;;;;;8.96;100.00;100844.94;4974048;28;20518;-52
2021/05/28 02:08:13;;;;;;;0.30;0.20;;;;;;;8.62;100.00;100848.00;4961117;28;20470;-52
2021/05/28 02:10:40;;;;;;;0.30;0.20;;;;;;;8.46;100.00;100855.25;4974411;28;20466;-52
2021/05/28 02:13:07;;;;;;;0.30;0.30;;;;;;;8.37;100.00;100852.72;4961335;28;20454;-52
2021/05/28 02:15:35;;;;;;;0.30;0.20;;;;;;;8.23;100.00;100862.53;4974089;28;20447;-52
2021/05/28 02:18:02;;;;;;;0.30;0.20;;;;;;;8.41;100.00;100859.72;4972727;28;20540;-52
2021/05/28 02:20:29;;;;;;;0.30;0.20;;;;;;;8.31;100.00;100864.19;4965748;28;20998;-52
2021/05/28 02:22:55;;;;;;;0.30;0.20;;;;;;;8.17;100.00;100865.22;4961200;28;21010;-52
2021/05/28 02:25:22;;;;;;;0.30;0.20;;;;;;;8.06;100.00;100864.44;4973901;28;20489;-52
2021/05/28 02:27:49;;;;;;;0.30;0.20;;;;;;;8.12;100.00;100862.63;4972950;28;20462;-52
2021/05/28 02:30:16;;;;;;;0.30;0.20;;;;;;;8.13;100.00;100856.44;4973935;28;20454;-52
2021/05/28 02:32:43;;;;;;;0.30;0.20;;;;;;;7.78;100.00;100866.44;4973730;28;20459;-52
2021/05/28 02:35:12;;;;;;;0.30;0.20;;;;;;;7.70;100.00;100858.59;4973669;28;20497;-52
2021/05/28 02:37:39;;;;;;;0.30;0.20;;;;;;;7.96;100.00;100861.91;4973913;28;20478;-52
2021/05/28 02:40:08;;;;;;;0.70;0.57;;;;;;;7.78;100.00;100867.31;4974050;28;20603;-52
2021/05/28 02:42:35;;;;;;;0.30;0.20;;;;;;;7.81;100.00;100867.34;4973648;28;20461;-52
2021/05/28 02:45:07;;;;;;;0.30;0.20;;;;;;;7.99;100.00;100861.00;4973516;28;20486;-52
2021/05/28 02:47:34;;;;;;;0.30;0.20;;;;;;;7.85;100.00;100866.41;4954147;28;20506;-52
2021/05/28 02:50:00;;;;;;;0.30;0.20;;;;;;;7.79;100.00;100857.63;4960212;28;20455;-52
2021/05/28 02:52:28;;;;;;;0.30;0.20;;;;;;;7.69;100.00;100864.78;4959424;28;20870;-52
2021/05/28 02:54:55;;;;;;;0.30;0.20;;;;;;;7.80;100.00;100865.53;4973477;28;20494;-52
2021/05/28 02:57:22;;;;;;;0.40;0.30;;;;;;;7.79;100.00;100873.50;4973526;28;21065;-52
2021/05/28 02:59:48;;;;;;;0.40;0.30;;;;;;;7.29;100.00;100864.16;4973148;28;20450;-52
2021/05/28 03:02:18;;;;;;;0.30;0.30;;;;;;;7.43;100.00;100868.47;4973663;28;21028;-52
2021/05/28 03:04:44;;;;;;;0.30;0.20;;;;;;;7.38;100.00;100867.59;4973246;28;20451;-52
2021/05/28 03:07:11;;;;;;;0.30;0.20;;;;;;;7.18;100.00;100872.16;4963950;28;20505;-52
2021/05/28 03:09:39;;;;;;;0.30;0.20;;;;;;;7.21;100.00;100864.19;4969905;28;20450;-52
2021/05/28 03:12:11;;;;;;;0.30;0.20;;;;;;;7.13;100.00;100872.19;4973024;28;20454;-51
2021/05/28 03:14:37;;;;;;;0.30;0.20;;;;;;;7.28;100.00;100871.22;4959977;28;20458;-52
2021/05/28 03:17:04;;;;;;;0.30;0.20;;;;;;;7.20;100.00;100869.50;4973205;28;20482;-51
2021/05/28 03:19:42;;;;;;;0.30;0.20;;;;;;;7.06;100.00;100875.72;4968672;28;20462;-52
2021/05/28 03:24:44;;;;;;;1.33;1.23;;;;;;;7.24;100.00;100866.81;4972724;28;20493;-52
2021/05/28 03:27:11;;;;;;;0.30;0.20;;;;;;;7.27;100.00;100877.41;4972582;28;20557;-52
2021/05/28 03:29:37;;;;;;;0.30;0.20;;;;;;;7.25;100.00;100868.56;4972889;28;20459;-52
2021/05/28 03:32:08;;;;;;;0.40;0.30;;;;;;;7.45;100.00;100879.03;4972709;28;20880;-54
2021/05/28 03:34:35;;;;;;;0.30;0.20;;;;;;;7.41;100.00;100880.84;4972668;28;20493;-53
2021/05/28 03:37:03;;;;;;;0.30;0.20;;;;;;;7.40;100.00;100876.44;4972630;28;20497;-53
2021/05/28 03:39:30;;;;;;;0.30;0.20;;;;;;;7.36;100.00;100877.31;4972429;28;20823;-54
2021/05/28 03:41:57;;;;;;;0.30;0.20;;;;;;;7.32;100.00;100872.06;4972627;28;20896;-53
2021/05/28 03:44:23;;;;;;;0.30;0.20;;;;;;;7.60;100.00;100872.78;4972919;28;20450;-53
2021/05/28 03:46:50;;;;;;;0.40;0.37;;;;;;;7.37;100.00;100875.56;4972388;28;21011;-53
2021/05/28 03:49:17;;;;;;;0.30;0.20;;;;;;;7.34;100.00;100879.09;4964294;28;20455;-54
2021/05/28 03:51:43;;;;;;;0.30;0.20;;;;;;;7.34;100.00;100881.75;4967844;28;20512;-53
2021/05/28 03:54:10;;;;;;;0.30;0.20;;;;;;;7.48;100.00;100886.94;4972524;28;20532;-53
2021/05/28 03:56:37;;;;;;;0.30;0.20;;;;;;;7.52;100.00;100891.31;4972404;28;20568;-53
2021/05/28 03:59:04;;;;;;;0.30;0.20;;;;;;;7.49;100.00;100890.47;4972700;28;20877;-53
2021/05/28 04:01:31;;;;;;;0.47;0.47;;;;;;;7.48;100.00;100888.72;4972553;28;20488;-54
2021/05/28 04:03:57;;;;;;;0.30;0.20;;;;;;;7.67;100.00;100893.84;4972592;28;20450;-54
2021/05/28 04:06:24;;;;;;;0.50;0.50;;;;;;;7.62;100.00;100890.38;4969294;28;20487;-54
2021/05/28 04:08:51;;;;;;;0.67;0.67;;;;;;;7.77;100.00;100896.44;4962695;28;20474;-53
2021/05/28 04:11:18;;;;;;;0.30;0.20;;;;;;;7.95;100.00;100889.28;4969706;28;20891;-54
2021/05/28 04:13:44;;;;;;;0.30;0.20;;;;;;;8.06;100.00;100888.28;4962733;28;20489;-54
2021/05/28 04:16:11;;;;;;;0.60;0.60;;;;;;;8.14;100.00;100892.63;5004140;28;20481;-53
2021/05/28 04:18:38;;;;;;;0.30;0.20;;;;;;;8.20;100.00;100892.56;4972145;28;20474;-54
2021/05/28 04:21:04;;;;;;;0.30;0.20;;;;;;;8.18;100.00;100885.53;4959174;28;20868;-53
2021/05/28 04:23:31;;;;;;;0.30;0.20;;;;;;;8.25;100.00;100881.94;4972579;28;20505;-54
2021/05/28 04:25:58;;;;;;;2.83;1.80;;;;;;;8.36;100.00;100892.44;4972130;28;20510;-53
2021/05/28 04:28:28;;;;;;;0.30;0.20;;;;;;;8.52;100.00;100897.59;4972324;28;20553;-54
2021/05/28 04:30:58;;;;;;;0.30;0.20;;;;;;;8.57;100.00;100892.22;4972166;28;20450;-53
2021/05/28 04:33:25;;;;;;;0.30;0.20;;;;;;;8.59;100.00;100893.97;4972309;28;20450;-53
2021/05/28 04:35:52;;;;;;;2.30;2.20;;;;;;;8.96;100.00;100897.97;4972119;28;20501;-53
2021/05/28 04:38:19;;;;;;;0.97;0.97;;;;;;;9.23;100.00;100889.66;4972540;28;20502;-53
2021/05/28 04:40:45;;;;;;;0.30;0.20;;;;;;;9.69;100.00;100887.22;4972180;28;20881;-54
2021/05/28 04:43:12;;;;;;;0.30;0.20;;;;;;;10.15;100.00;100888.28;4972443;28;20450;-53
2021/05/28 04:45:39;;;;;;;0.30;0.20;;;;;;;10.47;100.00;100901.88;4972358;28;20456;-53
2021/05/28 04:48:06;;;;;;;0.30;0.20;;;;;;;10.67;100.00;100901.50;5029061;22;20498;-50
2021/05/28 04:50:33;;;;;;;0.30;0.20;;;;;;;11.30;100.00;100897.56;5051419;28;21004;-49
2021/05/28 04:53:00;;;;;;;0.30;0.20;;;;;;;11.67;100.00;100908.28;5054265;28;20842;-50
2021/05/28 04:55:28;;;;;;;0.83;0.80;;;;;;;11.96;98.38;100908.50;5054083;28;20454;-50
2021/05/28 04:57:55;;;;;;;0.30;0.20;;;;;;;12.03;97.32;100912.75;5043311;28;21039;-50
2021/05/28 05:00:23;;;;;;;0.30;0.20;;;;;;;11.89;96.62;100914.88;5020918;28;20487;-51
2021/05/28 05:02:50;;;;;;;0.40;0.30;;;;;;;11.83;97.46;100915.91;5034183;28;20452;-50
2021/05/28 05:05:17;;;;;;;0.30;0.20;;;;;;;11.71;98.08;100912.63;5034071;28;21045;-50
2021/05/28 05:07:45;;;;;;;0.30;0.30;;;;;;;12.14;97.09;100921.34;5020658;28;20492;-49
2021/05/28 05:10:12;;;;;;;0.30;0.20;;;;;;;12.08;97.42;100920.66;5034177;28;20455;-50
2021/05/28 05:12:40;;;;;;;0.30;0.20;;;;;;;12.94;95.21;100919.25;5020813;28;20503;-49
2021/05/28 05:15:08;;;;;;;0.30;0.20;;;;;;;12.85;94.90;100916.84;5033990;28;20447;-50
2021/05/28 05:17:35;;;;;;;0.30;0.20;;;;;;;12.93;93.09;100923.72;5032421;28;20538;-50
2021/05/28 05:20:02;;;;;;;0.30;0.20;;;;;;;13.26;93.61;100937.91;5025595;28;20452;-50
2021/05/28 05:22:29;;;;;;;0.40;0.33;;;;;;;13.22;92.73;100935.38;5029106;28;20806;-50
2021/05/28 05:24:55;;;;;;;0.70;0.70;;;;;;;13.03;93.17;100938.56;5034101;28;20451;-50
2021/05/28 05:27:22;;;;;;;0.30;0.20;;;;;;;12.59;95.68;100938.88;5033525;28;20903;-49
2021/05/28 05:29:49;;;;;;;0.30;0.30;;;;;;;12.71;97.05;100939.44;5033730;28;20856;-50
2021/05/28 05:32:15;;;;;;;0.40;0.40;;;;;;;12.78;96.55;100939.28;5033848;28;20448;-50
2021/05/28 05:34:42;;;;;;;0.87;0.60;;;;;;;12.80;96.32;100946.31;5033735;28;20482;-50
2021/05/28 05:37:08;;;;;;;0.33;0.20;;;;;;;12.60;97.02;100949.50;5033437;28;20984;-50
2021/05/28 05:39:35;;;;;;;0.30;0.20;;;;;;;12.14;98.72;100957.78;5033610;28;20451;-50
2021/05/28 05:42:03;;;;;;;0.30;0.30;;;;;;;12.14;100.00;100952.47;5034046;28;20513;-50
2021/05/28 05:44:30;;;;;;;0.30;0.20;;;;;;;11.93;100.00;100961.00;5033520;28;20447;-50
2021/05/28 05:46:56;;;;;;;0.30;0.20;;;;;;;12.10;100.00;100957.00;5033156;28;20908;-50
2021/05/28 05:49:23;;;;;;;0.50;0.50;;;;;;;11.93;100.00;100959.19;5022541;28;20967;-50
2021/05/28 05:51:50;;;;;;;0.30;0.20;;;;;;;11.97;100.00;100955.53;5029738;28;20468;-50
2021/05/28 05:54:16;;;;;;;0.30;0.20;;;;;;;11.99;100.00;100951.03;5033364;28;20459;-50
2021/05/28 05:56:43;;;;;;;0.30;0.20;;;;;;;11.90;100.00;100953.91;5033026;28;20517;-49
2021/05/28 05:59:10;;;;;;;0.30;0.20;;;;;;;11.92;100.00;100952.09;5033189;28;20455;-50
2021/05/28 06:01:36;;;;;;;0.30;0.20;;;;;;;11.70;100.00;100958.81;5033412;28;20451;-49
2021/05/28 06:04:04;;;;;;;0.30;0.20;;;;;;;11.78;100.00;100952.38;5032938;28;20456;-50
2021/05/28 06:06:30;;;;;;;0.40;0.40;;;;;;;12.37;100.00;100959.91;5028930;28;20997;-50
2021/05/28 06:08:57;;;;;;;0.30;0.20;;;;;;;12.48;100.00;100952.50;5023701;28;20503;-50
2021/05/28 06:11:24;;;;;;;0.30;0.20;;;;;;;12.92;100.00;100962.00;5028672;28;20453;-50
2021/05/28 06:13:50;;;;;;;0.30;0.20;;;;;;;13.48;96.23;100964.00;5024075;28;20542;-50
2021/05/28 06:16:17;;;;;;;0.40;0.30;;;;;;;14.39;93.62;100960.19;5032857;28;20494;-50
2021/05/28 06:18:43;;;;;;;0.30;0.20;;;;;;;14.18;92.70;100956.44;5032624;28;20518;-48
2021/05/28 06:21:10;;;;;;;0.30;0.20;;;;;;;14.00;94.46;100957.94;5019144;28;20460;-48
2021/05/28 06:23:37;;;;;;;0.30;0.20;;;;;;;14.35;93.20;100961.25;5032469;28;20629;-48
2021/05/28 06:26:03;;;;;;;1.07;1.07;;;;;;;14.77;91.79;100965.16;5032362;28;20490;-48
2021/05/28 06:28:30;;;;;;;0.30;0.20;;;;;;;14.50;92.58;100968.78;5032493;28;20525;-48
2021/05/28 06:30:57;;;;;;;0.30;0.20;;;;;;;14.80;91.69;100966.84;5032589;28;20517;-48
2021/05/28 06:33:23;;;;;;;1.23;0.73;;;;;;;14.98;91.10;100960.84;5032395;28;20452;-48
2021/05/28 06:35:50;;;;;;;0.40;0.30;;;;;;;14.95;91.90;100969.00;5032343;28;20566;-48
2021/05/28 06:38:17;;;;;;;0.30;0.30;;;;;;;15.09;91.36;100963.16;5032427;28;20496;-49
2021/05/28 06:40:43;;;;;;;2.33;1.30;;;;;;;15.50;90.05;100968.78;5032070;28;20455;-48
2021/05/28 06:43:10;;;;;;;0.40;0.20;;;;;;;15.59;84.44;100969.31;5033064;28;20448;-48
2021/05/28 06:45:38;;;;;;;0.40;0.20;;;;;;;15.49;86.75;100970.59;5032912;28;20458;-48
2021/05/28 06:48:05;;;;;;;0.40;0.20;;;;;;;15.64;86.84;100962.00;5032172;28;20526;-48
2021/05/28 06:50:31;;;;;;;0.30;0.20;;;;;;;15.60;86.80;100973.75;5012355;28;20507;-48
2021/05/28 06:52:59;;;;;;;0.73;0.70;;;;;;;15.38;87.75;100970.13;5025756;28;20487;-48
2021/05/28 06:55:26;;;;;;;0.30;0.20;;;;;;;15.36;86.97;100970.16;5032389;28;20546;-48
2021/05/28 06:57:53;;;;;;;0.43;0.43;;;;;;;15.28;88.35;100969.56;5032136;28;20833;-48
2021/05/28 07:00:20;;;;;;;0.30;0.20;;;;;;;15.36;86.03;100978.22;5032227;28;20459;-48
2021/05/28 07:02:47;;;;;;;0.40;0.20;;;;;;;15.52;85.30;100975.81;5032107;28;20894;-48
2021/05/28 07:05:14;;;;;;;0.30;0.20;;;;;;;15.50;85.15;100983.06;5031002;28;21003;-48
2021/05/28 07:07:41;;;;;;;0.40;0.40;;;;;;;15.67;83.33;100982.44;5018394;28;20970;-48
2021/05/28 07:10:09;;;;;;;0.30;0.20;;;;;;;15.61;83.61;100985.34;5031879;28;20509;-48
2021/05/28 07:12:35;;;;;;;0.30;0.20;;;;;;;15.40;84.04;100978.97;5018484;28;20460;-48
2021/05/28 07:15:04;;;;;;;0.63;0.63;;;;;;;15.88;84.94;100983.38;5031393;28;20452;-48
2021/05/28 07:17:31;;;;;;;0.30;0.20;;;;;;;15.38;84.81;100987.06;5031235;28;20989;-47
2021/05/28 07:19:58;;;;;;;0.40;0.20;;;;;;;15.52;85.01;100983.88;5023521;28;20786;-48
2021/05/28 07:22:24;;;;;;;0.30;0.20;;;;;;;15.55;84.15;100985.53;5026422;28;20986;-48
2021/05/28 07:24:51;;;;;;;1.23;1.23;;;;;;;15.43;84.61;100986.88;5031664;28;20470;-48
2021/05/28 07:27:18;;;;;;;0.50;0.50;;;;;;;15.45;84.86;100979.66;5031691;28;20537;-48
2021/05/28 07:29:45;;;;;;;0.30;0.20;;;;;;;15.77;82.77;100981.16;5031666;28;20505;-48
2021/05/28 07:32:12;;;;;;;0.40;0.30;;;;;;;15.96;82.02;100975.94;5031635;28;20570;-48
2021/05/28 07:34:39;;;;;;;0.30;0.20;;;;;;;15.93;81.73;100979.63;5031440;28;20948;-48
2021/05/28 07:37:07;;;;;;;0.30;0.20;;;;;;;15.69;82.11;100970.72;5031101;28;20476;-48
2021/05/28 07:39:34;;;;;;;0.30;0.20;;;;;;;15.64;82.82;100977.19;5031427;28;20494;-48
2021/05/28 07:42:03;;;;;;;0.30;0.20;;;;;;;16.08;80.51;100979.94;5030336;28;20448;-48
2021/05/28 07:44:30;;;;;;;0.30;0.20;;;;;;;15.89;79.44;100977.97;5031777;28;20451;-48
2021/05/28 07:46:57;;;;;;;0.63;0.63;;;;;;;15.72;80.03;100975.06;5031446;28;20523;-48
2021/05/28 07:49:24;;;;;;;0.30;0.30;;;;;;;15.30;80.41;100972.19;5022021;28;20953;-48
2021/05/28 07:51:51;;;;;;;0.37;0.30;;;;;;;15.50;82.81;100968.78;5028574;28;20447;-48
2021/05/28 07:54:18;;;;;;;0.40;0.20;;;;;;;15.05;82.20;100972.19;5030680;28;20451;-48
2021/05/28 07:56:45;;;;;;;0.30;0.20;;;;;;;15.17;83.00;100971.75;5031705;28;20451;-48
2021/05/28 07:59:11;;;;;;;0.30;0.20;;;;;;;15.51;80.89;100960.69;5031840;28;20451;-48
2021/05/28 08:01:39;;;;;;;0.30;0.20;;;;;;;15.67;80.42;100961.00;5031591;28;20525;-48
2021/05/28 08:04:06;;;;;;;0.30;0.20;;;;;;;15.83;81.07;100963.94;5031427;28;20430;-48
2021/05/28 08:06:32;;;;;;;0.83;0.83;;;;;;;16.18;80.09;100968.78;5027524;28;20424;-48
2021/05/28 08:08:59;;;;;;;0.30;0.20;;;;;;;15.64;77.90;100977.19;5022063;28;21045;-48
2021/05/28 08:11:25;;;;;;;0.40;0.20;;;;;;;15.96;78.91;100967.88;5027098;28;20480;-48
2021/05/28 08:13:52;;;;;;;0.40;0.40;;;;;;;16.27;78.31;100970.19;5022498;28;20443;-48
2021/05/28 08:16:19;;;;;;;0.60;0.60;;;;;;;15.90;77.71;100965.47;5030960;28;20820;-48
2021/05/28 08:18:45;;;;;;;0.40;0.20;;;;;;;16.30;77.83;100965.56;5028884;28;20531;-48
2021/05/28 08:21:12;;;;;;;0.40;0.30;;;;;;;16.06;77.33;100966.59;5025973;28;20582;-48
2021/05/28 08:23:40;;;;;;;0.50;0.50;;;;;;;15.73;78.30;100959.88;5022572;28;20570;-48
2021/05/28 08:26:07;;;;;;;0.37;0.20;;;;;;;16.24;79.11;100970.31;5032920;28;20455;-48
2021/05/28 08:28:35;;;;;;;0.37;0.20;;;;;;;16.13;77.27;100968.06;5034695;28;21041;-48
2021/05/28 08:31:06;;;;;;;0.40;0.20;;;;;;;16.23;77.37;100971.25;5034794;28;20422;-48
2021/05/28 08:33:35;;;;;;;0.40;0.20;;;;;;;16.97;76.55;100977.09;5034848;28;20525;-48
2021/05/28 08:36:01;;;;;;;0.40;0.30;;;;;;;17.16;75.73;100973.53;5034959;28;20451;-48
2021/05/28 08:38:28;;;;;;;0.40;0.20;;;;;;;17.10;74.75;100967.53;5034529;28;20468;-48
2021/05/28 08:40:55;;;;;;;0.30;0.20;;;;;;;16.96;74.89;100976.22;5034555;28;20430;-47
2021/05/28 08:43:22;;;;;;;0.40;0.20;;;;;;;16.71;74.19;100970.16;5034604;28;20455;-48
2021/05/28 08:45:49;;;;;;;0.40;0.20;;;;;;;16.37;74.86;100976.06;5034436;28;20447;-47
2021/05/28 08:48:18;;;;;;;0.40;0.20;;;;;;;16.32;73.75;100967.34;5034051;28;20495;-48
2021/05/28 08:50:47;;;;;;;0.40;0.20;;;;;;;16.46;73.72;100967.63;5021981;28;20455;-48
2021/05/28 08:53:15;;;;;;;0.40;0.20;;;;;;;16.49;70.72;100960.31;5034333;28;20455;-48
2021/05/28 08:55:44;;;;;;;0.40;0.20;;;;;;;16.22;71.81;100965.03;5034650;28;20451;-48
2021/05/28 08:58:16;;;;;;;0.40;0.20;;;;;;;16.41;71.59;100966.94;5032880;28;20503;-50
2021/05/28 09:00:47;;;;;;;0.37;0.27;;;;;;;16.62;70.08;100962.50;5034472;28;20987;-48
2021/05/28 09:03:24;;;;;;;0.40;0.20;;;;;;;15.93;73.91;100965.34;5034553;28;20451;-47
2021/05/28 09:06:01;;;;;;;0.40;0.20;;;;;;;16.25;73.57;100970.25;5034084;28;20486;-51
2021/05/28 09:08:32;;;;;;;0.40;0.20;;;;;;;16.57;73.33;100966.22;5021353;28;20491;-48
2021/05/28 09:11:08;;;;;;;0.33;0.20;;;;;;;16.28;70.92;100969.25;5034250;28;20448;-47
2021/05/28 09:13:43;;;;;;;0.30;0.20;;;;;;;16.16;72.90;100972.44;5025351;28;20457;-47
2021/05/28 09:16:12;;;;;;;0.40;0.20;;;;;;;16.09;73.51;100971.81;5031092;28;20443;-47
2021/05/28 09:18:46;;;;;;;0.70;0.67;;;;;;;16.26;74.62;100966.63;5022713;28;20464;-48
2021/05/28 09:21:35;;;;;;;0.30;0.20;;;;;;;16.47;74.56;100972.06;5032142;28;20479;-48
2021/05/28 09:24:05;;;;;;;0.40;0.20;;;;;;;16.18;73.76;100975.94;5033817;28;20448;-48
2021/05/28 09:26:33;;;;;;;0.30;0.20;;;;;;;16.30;73.33;100973.63;5033520;28;20459;-48
2021/05/28 09:29:01;;;;;;;0.30;0.20;;;;;;;16.25;73.56;100974.75;5033202;28;20500;-49
2021/05/28 09:31:32;;;;;;;0.40;0.20;;;;;;;16.63;72.63;100975.84;5033794;28;20874;-48
2021/05/28 09:33:59;;;;;;;0.30;0.20;;;;;;;16.56;71.52;100968.97;5034266;28;20444;-48
2021/05/28 09:36:27;;;;;;;0.40;0.20;;;;;;;16.95;71.39;100969.09;5033626;28;20430;-48
2021/05/28 09:38:56;;;;;;;0.40;0.20;;;;;;;17.27;72.14;100967.69;5033811;28;20478;-48
2021/05/28 09:41:50;;;;;;;0.40;0.20;;;;;;;17.13;68.66;100964.72;5033940;28;20451;-49
2021/05/28 09:44:22;;;;;;;0.40;0.20;;;;;;;17.02;69.30;100965.22;5033444;28;20440;-48
2021/05/28 09:47:03;;;;;;;0.40;0.20;;;;;;;17.29;68.78;100951.50;5033026;28;20484;-49
2021/05/28 09:49:39;;;;;;;0.40;0.20;;;;;;;17.23;71.86;100965.19;5013511;28;20451;-48
2021/05/28 09:52:05;;;;;;;0.40;0.20;;;;;;;16.73;70.26;100955.75;5032385;28;20820;-48
2021/05/28 09:54:33;;;;;;;0.40;0.20;;;;;;;17.01;71.72;100955.41;5033099;28;20448;-48
2021/05/28 09:56:59;;;;;;;0.40;0.20;;;;;;;16.47;71.95;100951.47;5033066;28;20468;-48
2021/05/28 09:59:43;;;;;;;0.40;0.20;;;;;;;16.90;72.41;100962.19;5033162;28;20467;-49
2021/05/28 10:02:35;;;;;;;0.40;0.20;;;;;;;17.12;72.38;100957.59;5013408;28;20526;-48
2021/05/28 10:05:05;;;;;;;0.40;0.20;;;;;;;17.28;70.11;100952.44;5032377;28;20454;-48
2021/05/28 10:07:33;;;;;;;0.40;0.20;;;;;;;17.55;69.04;100952.97;5020759;28;20935;-48
2021/05/28 10:10:01;;;;;;;0.40;0.20;;;;;;;17.39;69.92;100953.66;5032544;28;20534;-48
2021/05/28 10:12:28;;;;;;;0.40;0.20;;;;;;;17.58;68.68;100947.44;5020261;28;20464;-48
2021/05/28 10:14:55;;;;;;;3.27;0.93;;;;;;;17.60;66.68;100953.63;5032707;28;20455;-48
2021/05/28 10:17:22;;;;;;;0.40;0.20;;;;;;;17.39;67.01;100950.09;5033092;28;20442;-48
2021/05/28 10:19:50;;;;;;;0.40;0.20;;;;;;;17.69;66.43;100948.72;5019966;28;20452;-48
2021/05/28 10:22:17;;;;;;;0.40;0.20;;;;;;;17.61;68.16;100949.97;5032925;28;20418;-48
2021/05/28 10:24:45;;;;;;;0.40;0.20;;;;;;;17.59;66.48;100946.50;5032916;28;20456;-48
2021/05/28 10:27:23;;;;;;;0.40;0.20;;;;;;;17.47;65.57;100956.88;5032686;28;20554;-48
2021/05/28 10:29:54;;;;;;;0.40;0.20;;;;;;;17.68;65.33;100952.34;5033193;28;20445;-48
2021/05/28 10:32:22;;;;;;;0.40;0.20;;;;;;;18.22;65.17;100947.03;5032721;28;21135;-49
2021/05/28 10:35:12;;;;;;;0.40;0.20;;;;;;;18.02;63.84;100945.34;5032741;28;20876;-48
2021/05/28 10:37:44;;;;;;;0.40;0.20;;;;;;;17.74;64.96;100949.38;5032478;28;20496;-48
2021/05/28 10:40:31;;;;;;;0.40;0.20;;;;;;;17.69;66.02;100948.72;5032400;28;20930;-48
2021/05/28 10:43:05;;;;;;;0.40;0.20;;;;;;;17.65;63.19;100952.44;5032578;28;20423;-48
2021/05/28 10:46:00;;;;;;;0.40;0.20;;;;;;;17.61;64.23;100941.91;5032164;28;20926;-48
2021/05/28 10:48:43;;;;;;;0.40;0.20;;;;;;;18.29;62.66;100945.78;5031157;28;20487;-48
2021/05/28 10:51:13;;;;;;;0.40;0.30;;;;;;;18.56;63.33;100940.84;5023291;28;20972;-48
2021/05/28 10:54:00;;;;;;;0.40;0.20;;;;;;;18.55;64.79;100939.09;5032208;28;20467;-48
2021/05/28 10:56:36;;;;;;;0.40;0.20;;;;;;;18.64;63.89;100934.16;5025080;28;20430;-49
2021/05/28 10:59:10;;;;;;;0.40;0.20;;;;;;;18.16;62.07;100941.97;5031943;28;20448;-48
2021/05/28 11:01:57;;;;;;;0.40;0.20;;;;;;;18.93;62.84;100929.94;5031926;28;20902;-47
2021/05/28 11:04:49;;;;;;;0.90;0.60;;;;;;;18.16;63.84;100941.97;5031968;28;20448;-48
2021/05/28 11:07:16;;;;;;;0.40;0.20;;;;;;;17.51;66.41;100936.09;5012132;28;20476;-49
2021/05/28 11:09:46;;;;;;;0.40;0.20;;;;;;;17.57;65.75;100941.19;5029010;28;20512;-50
2021/05/28 11:12:26;;;;;;;0.40;0.30;;;;;;;17.70;66.51;100928.94;5021842;28;20463;-50
2021/05/28 11:15:00;;;;;;;0.40;0.20;;;;;;;17.28;65.02;100931.81;5031566;28;20474;-49
2021/05/28 11:17:28;;;;;;;0.40;0.20;;;;;;;17.43;64.03;100939.16;5031256;28;20468;-48
2021/05/28 11:19:57;;;;;;;0.40;0.20;;;;;;;17.38;65.03;100934.91;5019625;28;20447;-48
2021/05/28 11:22:41;;;;;;;0.40;0.20;;;;;;;17.39;64.87;100912.47;5031887;28;20973;-48
2021/05/28 11:25:17;;;;;;;0.40;0.20;;;;;;;17.64;64.87;100925.63;5031781;28;20418;-48
2021/05/28 11:27:48;;;;;;;0.40;0.20;;;;;;;17.78;64.14;100923.19;5030697;28;20549;-48
2021/05/28 11:30:20;;;;;;;0.40;0.20;;;;;;;18.14;63.49;100912.44;5032013;28;20444;-48
2021/05/28 11:32:48;;;;;;;0.40;0.40;;;;;;;18.38;64.71;100912.19;5032200;28;20427;-48